Time;durP1;ratioP1;P1;durP2;ratioP2;P2;SDS_P1;SDS_P2;PMS_P1;PMS_P2;Temp;Humidity;BMP_temperature;BMP_pressure;BME280_temperature;BME280_humidity;BME280_pressure;Samples;Min_cycle;Max_cycle;Signal;HPM_P1;HPM_P2
2024/04/25 00:02:18;;;;;;;3.90;2.15;;;;;;;6.80;63.71;98789.19;6481328;22;20020;-85
2024/04/25 00:04:49;;;;;;;5.88;2.60;;;;;;;6.80;63.80;98795.25;6481553;22;20025;-85
2024/04/25 00:07:17;;;;;;;4.28;2.08;;;;;;;6.77;63.86;98783.19;6482029;22;20024;-86
2024/04/25 00:09:44;;;;;;;3.20;2.05;;;;;;;6.76;63.89;98783.28;6525979;21;20095;-85
2024/04/25 00:12:10;;;;;;;5.15;2.45;;;;;;;6.77;64.29;98784.97;6481547;22;20289;-84
2024/04/25 00:14:37;;;;;;;2.88;1.95;;;;;;;6.74;64.08;98787.75;6526791;22;19997;-86
2024/04/25 00:17:04;;;;;;;3.80;2.20;;;;;;;6.73;64.33;98786.91;6481789;22;20101;-85
2024/04/25 00:19:30;;;;;;;3.60;2.03;;;;;;;6.74;64.05;98779.91;6526107;21;20016;-85
2024/04/25 00:21:57;;;;;;;5.03;2.22;;;;;;;6.73;64.32;98778.25;6481609;22;20324;-85
2024/04/25 00:24:24;;;;;;;2.92;1.92;;;;;;;6.74;64.36;98782.53;6481472;22;20012;-86
2024/04/25 00:26:50;;;;;;;3.78;2.03;;;;;;;6.72;64.33;98777.38;6526316;22;20012;-86
2024/04/25 00:29:17;;;;;;;4.40;1.92;;;;;;;6.72;64.52;98781.75;6481150;22;19997;-86
2024/04/25 00:31:44;;;;;;;4.68;2.05;;;;;;;6.71;64.63;98774.84;6481317;22;20014;-85
2024/04/25 00:34:11;;;;;;;2.28;1.98;;;;;;;6.70;64.66;98774.03;6481633;22;20304;-86
2024/04/25 00:36:37;;;;;;;3.55;2.15;;;;;;;6.71;64.76;98780.94;6481286;22;20005;-87
2024/04/25 00:39:04;;;;;;;3.00;2.10;;;;;;;6.71;64.88;98778.31;6481438;22;20001;-87
2024/04/25 00:41:31;;;;;;;2.97;2.10;;;;;;;6.71;64.47;98780.94;6525527;22;20005;-85
2024/04/25 00:43:57;;;;;;;5.18;2.10;;;;;;;6.72;64.62;98773.91;6481593;22;20326;-85
2024/04/25 00:46:24;;;;;;;5.00;2.53;;;;;;;6.73;64.92;98775.63;6481320;22;20368;-84
2024/04/25 00:48:52;;;;;;;3.10;2.40;;;;;;;6.74;64.96;98774.69;6481266;21;19997;-85
2024/04/25 00:51:21;;;;;;;3.35;2.20;;;;;;;6.75;64.88;98771.13;6525673;22;20012;-85
2024/04/25 00:53:48;;;;;;;3.65;2.20;;;;;;;6.74;64.95;98762.47;6526284;22;19997;-85
2024/04/25 00:56:16;;;;;;;4.18;2.40;;;;;;;6.76;65.01;98768.44;6481450;22;20009;-85
2024/04/25 01:02:04;;;;;;;3.00;2.00;;;;;;;6.77;65.02;98764.88;6374146;22;20003;-88
2024/04/25 01:04:33;;;;;;;5.32;2.55;;;;;;;6.76;65.21;98762.34;6372795;22;20014;-87
2024/04/25 01:07:01;;;;;;;3.50;2.25;;;;;;;6.76;64.83;98759.72;6374528;22;20023;-87
2024/04/25 01:09:28;;;;;;;2.97;2.53;;;;;;;6.73;65.13;98762.53;6371648;22;20014;-87
2024/04/25 01:11:58;;;;;;;6.00;2.60;;;;;;;6.71;65.38;98764.38;6373031;22;20026;-87
2024/04/25 01:14:25;;;;;;;3.45;2.45;;;;;;;6.72;65.24;98763.44;6330828;22;19999;-85
2024/04/25 01:16:52;;;;;;;2.60;2.05;;;;;;;6.71;65.15;98770.47;6331219;22;20003;-85
2024/04/25 01:19:19;;;;;;;3.25;2.35;;;;;;;6.71;65.23;98764.38;6330894;22;19999;-87
2024/04/25 01:21:45;;;;;;;5.50;2.30;;;;;;;6.71;65.50;98767.00;6373969;22;20014;-85
2024/04/25 01:24:27;;;;;;;3.20;2.63;;;;;;;6.70;65.60;98760.94;6373868;22;19999;-86
2024/04/25 01:26:59;;;;;;;3.17;2.30;;;;;;;6.71;65.93;98759.16;6373776;22;20015;-87
2024/04/25 01:29:27;;;;;;;3.40;2.22;;;;;;;6.76;65.65;98759.72;6370845;22;19999;-86
2024/04/25 01:31:55;;;;;;;3.95;2.90;;;;;;;6.78;65.82;98757.88;6373550;22;20426;-86
2024/04/25 01:34:24;;;;;;;3.78;2.40;;;;;;;6.77;66.07;98757.03;6331002;22;20014;-86
2024/04/25 01:36:52;;;;;;;3.67;2.63;;;;;;;6.79;65.89;98759.56;6331098;22;20049;-87
2024/04/25 01:39:19;;;;;;;4.35;3.05;;;;;;;6.82;65.82;98754.16;6370279;22;20009;-87
2024/04/25 01:41:46;;;;;;;4.15;2.83;;;;;;;6.85;66.32;98750.53;6331236;22;20014;-85
2024/04/25 01:44:12;;;;;;;3.28;2.70;;;;;;;6.85;66.22;98742.69;6371814;22;20018;-85
2024/04/25 01:46:39;;;;;;;5.43;3.00;;;;;;;6.89;66.16;98744.19;6373223;22;20007;-84
2024/04/25 01:49:06;;;;;;;6.85;3.15;;;;;;;6.89;66.37;98734.53;6331110;22;20351;-87
2024/04/25 01:51:33;;;;;;;2.90;2.60;;;;;;;6.91;66.28;98737.06;6374049;22;20022;-84
2024/04/25 01:53:59;;;;;;;5.38;3.58;;;;;;;6.91;66.30;98729.22;6371433;22;19999;-86
2024/04/25 01:56:29;;;;;;;3.58;2.90;;;;;;;6.91;66.65;98737.06;6331305;22;19999;-85
2024/04/25 01:58:58;;;;;;;3.83;2.33;;;;;;;6.94;66.26;98736.91;6331060;22;20010;-84
2024/04/25 02:01:24;;;;;;;6.18;3.25;;;;;;;6.95;66.37;98740.38;6373782;22;20418;-85
2024/04/25 02:03:51;;;;;;;7.47;3.58;;;;;;;6.96;66.44;98740.28;6330620;22;20014;-85
2024/04/25 02:06:18;;;;;;;4.65;3.30;;;;;;;6.97;66.51;98738.50;6330673;22;20015;-85
2024/04/25 02:08:45;;;;;;;5.40;3.30;;;;;;;6.99;66.68;98747.94;6330724;22;20010;-87
2024/04/25 02:11:11;;;;;;;5.22;3.35;;;;;;;7.02;66.68;98744.28;6373832;22;20706;-85
2024/04/25 02:13:38;;;;;;;3.58;3.17;;;;;;;7.03;66.88;98740.78;6373661;22;20024;-85
2024/04/25 02:16:05;;;;;;;6.03;3.25;;;;;;;7.05;66.74;98738.91;6373748;22;20445;-84
2024/04/25 02:18:32;;;;;;;5.32;3.60;;;;;;;7.07;66.96;98739.66;6373261;22;20007;-86
2024/04/25 02:26:29;;;;;;;3.72;3.22;;;;;;;7.13;66.72;98731.44;6373825;22;19996;-85
2024/04/25 02:28:56;;;;;;;4.00;3.13;;;;;;;7.15;67.00;98733.97;6373083;22;20434;-84
2024/04/25 02:31:28;;;;;;;3.47;2.92;;;;;;;7.17;67.23;98729.47;6371371;22;20298;-85
2024/04/25 02:33:55;;;;;;;5.43;3.05;;;;;;;7.20;66.95;98728.44;6373175;22;20052;-85
2024/04/25 02:36:21;;;;;;;3.95;2.80;;;;;;;7.22;67.13;98724.78;6373594;22;19995;-87
2024/04/25 02:38:50;;;;;;;7.15;3.22;;;;;;;7.23;67.22;98729.13;6330494;22;20003;-87
2024/04/25 02:41:17;;;;;;;3.50;3.20;;;;;;;7.26;67.05;98728.91;6330571;22;19999;-86
2024/04/25 02:43:44;;;;;;;3.55;2.80;;;;;;;7.25;66.95;98724.63;6373906;22;20075;-87
2024/04/25 02:46:11;;;;;;;6.32;2.97;;;;;;;7.28;67.05;98727.06;6373377;22;20000;-86
2024/04/25 02:48:37;;;;;;;5.13;2.72;;;;;;;7.29;67.37;98725.28;6370861;22;20011;-87
2024/04/25 02:51:04;;;;;;;2.97;2.67;;;;;;;7.30;67.01;98717.31;6371530;22;20297;-87
2024/04/25 02:53:31;;;;;;;5.25;3.00;;;;;;;7.31;67.10;98718.19;6375712;22;20093;-85
2024/04/25 02:55:58;;;;;;;4.22;2.97;;;;;;;7.33;67.05;98716.28;6332403;22;20460;-84
2024/04/25 02:58:24;;;;;;;4.90;2.83;;;;;;;7.34;67.27;98718.00;6372113;22;20055;-85
2024/04/25 03:00:51;;;;;;;3.95;2.67;;;;;;;7.35;67.27;98718.81;6374739;22;20011;-85
2024/04/25 03:03:18;;;;;;;3.83;2.67;;;;;;;7.35;67.19;98716.22;6375255;22;20003;-85
2024/04/25 03:05:45;;;;;;;5.03;3.13;;;;;;;7.35;67.12;98719.69;6375169;22;20014;-85
2024/04/25 03:08:11;;;;;;;5.03;2.83;;;;;;;7.36;67.48;98723.97;6332174;22;20432;-85
2024/04/25 03:10:38;;;;;;;6.13;2.50;;;;;;;7.36;67.57;98713.50;6375005;22;20014;-85
2024/04/25 03:13:05;;;;;;;4.65;2.60;;;;;;;7.36;67.45;98718.75;6332501;22;20010;-85
2024/04/25 03:15:31;;;;;;;5.00;2.95;;;;;;;7.38;67.29;98722.13;6332494;22;20449;-85
2024/04/25 03:17:58;;;;;;;5.18;2.88;;;;;;;7.39;67.38;98712.47;6374928;22;20014;-86
2024/04/25 03:20:25;;;;;;;6.28;3.45;;;;;;;7.40;67.41;98719.41;6374699;22;19999;-85
2024/04/25 03:22:51;;;;;;;5.18;3.03;;;;;;;7.41;67.14;98721.91;6375332;22;20026;-85
2024/04/25 03:25:18;;;;;;;4.95;3.33;;;;;;;7.41;67.38;98723.72;6374647;22;19999;-85
2024/04/25 03:27:45;;;;;;;5.35;3.28;;;;;;;7.42;67.21;98720.16;6375164;22;20078;-86
2024/04/25 03:30:12;;;;;;;3.95;2.85;;;;;;;7.42;67.53;98723.63;6374096;22;20003;-86
2024/04/25 03:32:38;;;;;;;3.28;2.70;;;;;;;7.44;67.26;98723.50;6372746;22;20043;-85
2024/04/25 03:35:05;;;;;;;5.20;2.80;;;;;;;7.46;67.35;98723.41;6374613;22;20278;-85
2024/04/25 03:37:32;;;;;;;3.30;2.92;;;;;;;7.45;67.36;98721.72;6332205;22;20018;-86
2024/04/25 03:39:59;;;;;;;3.03;2.72;;;;;;;7.45;67.49;98719.97;6374240;22;19999;-87
2024/04/25 03:42:25;;;;;;;3.95;2.92;;;;;;;7.48;67.48;98718.94;6332109;22;20022;-87
2024/04/25 03:44:52;;;;;;;4.97;2.85;;;;;;;7.48;67.46;98718.94;6331667;22;20000;-87
2024/04/25 03:47:20;;;;;;;3.28;2.90;;;;;;;7.49;67.49;98721.47;6372707;22;20011;-84
2024/04/25 03:49:47;;;;;;;3.47;2.97;;;;;;;7.51;67.45;98724.81;6331561;22;20004;-85
2024/04/25 03:52:14;;;;;;;3.33;2.58;;;;;;;7.51;67.43;98724.81;6374617;22;20007;-85
2024/04/25 03:54:40;;;;;;;3.60;2.72;;;;;;;7.49;67.51;98718.84;6374797;22;20003;-85
2024/04/25 03:57:07;;;;;;;3.00;2.67;;;;;;;7.50;67.45;98722.28;6372301;22;20007;-84
2024/04/25 03:59:34;;;;;;;4.35;2.60;;;;;;;7.50;67.41;98722.28;6373187;22;20011;-84
2024/04/25 04:02:00;;;;;;;3.40;2.50;;;;;;;7.49;67.25;98723.22;6374275;22;20007;-85
2024/04/25 04:04:27;;;;;;;3.72;2.25;;;;;;;7.49;67.43;98721.47;6374462;22;20396;-84
2024/04/25 04:06:53;;;;;;;2.60;1.98;;;;;;;7.48;67.25;98730.22;6374016;22;20003;-85
2024/04/25 04:09:20;;;;;;;2.60;2.40;;;;;;;7.49;67.47;98723.22;6374166;22;20342;-85
2024/04/25 04:11:47;;;;;;;4.30;2.50;;;;;;;7.49;67.53;98724.09;6374706;22;20085;-85
2024/04/25 04:14:13;;;;;;;2.42;2.17;;;;;;;7.49;67.66;98728.47;6374512;22;20029;-84
2024/04/25 04:16:40;;;;;;;6.47;2.25;;;;;;;7.50;67.71;98723.16;6331277;22;20459;-85
2024/04/25 04:19:07;;;;;;;2.72;2.15;;;;;;;7.53;67.63;98732.59;6374556;22;20018;-86
2024/04/25 04:21:34;;;;;;;3.15;2.42;;;;;;;7.54;67.63;98729.88;6332836;22;20019;-85
2024/04/25 04:24:00;;;;;;;2.20;1.83;;;;;;;7.56;67.55;98728.00;6375632;22;19999;-87
2024/04/25 04:26:27;;;;;;;3.90;2.00;;;;;;;7.59;67.49;98729.56;6332415;22;20007;-85
2024/04/25 04:28:54;;;;;;;2.70;2.20;;;;;;;7.60;67.55;98728.66;6374891;22;20035;-87
2024/04/25 04:31:21;;;;;;;4.53;1.88;;;;;;;7.60;67.42;98731.28;6332428;22;20010;-87
2024/04/25 04:33:48;;;;;;;3.00;2.15;;;;;;;7.62;67.61;98726.78;6375147;22;20022;-86
2024/04/25 04:36:15;;;;;;;4.53;1.80;;;;;;;7.65;67.38;98734.47;6331943;22;20019;-88
2024/04/25 04:38:41;;;;;;;3.72;2.28;;;;;;;7.66;67.56;98725.66;6372161;22;19999;-86
2024/04/25 04:41:08;;;;;;;3.67;1.77;;;;;;;7.66;67.15;98728.28;6375407;22;20014;-85
2024/04/25 04:43:36;;;;;;;4.47;1.92;;;;;;;7.67;67.17;98729.13;6373544;22;20311;-86
2024/04/25 04:46:03;;;;;;;5.13;2.08;;;;;;;7.68;67.47;98729.03;6372779;22;20003;-85
2024/04/25 04:48:30;;;;;;;2.30;1.65;;;;;;;7.68;67.25;98725.56;6372538;22;20381;-85
2024/04/25 04:51:01;;;;;;;5.07;1.88;;;;;;;7.68;67.57;98726.41;6333385;22;20087;-85
2024/04/25 04:53:29;;;;;;;4.90;2.28;;;;;;;7.69;67.24;98728.09;6333126;22;20027;-85
2024/04/25 04:55:56;;;;;;;3.45;1.80;;;;;;;7.69;67.33;98722.84;6375375;22;20050;-85
2024/04/25 05:01:15;;;;;;;4.75;2.42;;;;;;;7.65;67.73;98729.22;6527591;21;20041;-86
2024/04/25 05:04:30;;;;;;;3.38;1.75;;;;;;;7.67;67.63;98729.13;6486373;22;19997;-86
2024/04/25 05:10:53;;;;;;;6.40;1.92;;;;;;;7.66;67.94;98727.41;6343860;22;20428;-88
2024/04/25 05:14:10;;;;;;;;;;;;;;;;;;;;;
2024/04/25 05:21:02;;;;;;;5.30;1.85;;;;;;;7.72;67.77;98726.22;6212796;22;20030;-87
2024/04/25 05:23:44;;;;;;;;;;;;;;;;;;;;;
2024/04/25 05:26:21;;;;;;;6.53;2.08;;;;;;;7.74;67.91;98735.66;6476792;22;20427;-87
2024/04/25 05:28:51;;;;;;;6.55;2.35;;;;;;;7.77;67.94;98729.38;6431982;22;20002;-87
2024/04/25 05:31:32;;;;;;;;;;;;;;;;;;;;;
2024/04/25 05:34:09;;;;;;;4.45;2.65;;;;;;;7.78;68.13;98733.69;6476954;22;20030;-87
2024/04/25 05:36:42;;;;;;;7.22;2.60;;;;;;;7.80;68.16;98730.06;6476868;22;19997;-88
2024/04/25 05:39:13;;;;;;;4.32;2.33;;;;;;;7.80;68.09;98729.19;6476387;22;20509;-87
2024/04/25 05:41:43;;;;;;;7.75;2.10;;;;;;;7.82;68.13;98730.78;6430733;22;20050;-87
2024/04/25 05:44:13;;;;;;;6.10;2.13;;;;;;;7.83;68.38;98734.25;6475078;22;20079;-86
2024/04/25 05:46:40;;;;;;;8.25;2.42;;;;;;;7.87;68.76;98734.91;6433508;22;20005;-87
2024/04/25 05:49:07;;;;;;;3.53;1.60;;;;;;;7.88;68.49;98737.41;6431212;22;20014;-87
2024/04/25 05:51:35;;;;;;;3.60;1.65;;;;;;;7.91;68.41;98739.84;6432199;22;19998;-86
2024/04/25 05:54:07;;;;;;;6.80;2.00;;;;;;;7.92;68.57;98731.06;6432914;22;19998;-87
2024/04/25 05:56:36;;;;;;;4.10;1.83;;;;;;;7.95;68.20;98735.25;6432087;22;19997;-86
2024/04/25 05:59:11;;;;;;;4.35;1.40;;;;;;;7.98;68.32;98732.44;6475655;22;20073;-86
2024/04/25 06:01:44;;;;;;;4.35;1.60;;;;;;;8.03;68.22;98732.16;6433945;22;20012;-87
2024/04/25 06:04:20;;;;;;;4.70;1.45;;;;;;;8.06;68.09;98739.81;6434963;22;20005;-86
2024/04/25 06:06:58;;;;;;;5.47;1.60;;;;;;;8.09;68.17;98742.25;6476641;22;20006;-87
2024/04/25 06:09:26;;;;;;;3.80;1.50;;;;;;;8.11;68.14;98743.00;6432134;22;19997;-88
2024/04/25 06:12:07;;;;;;;6.40;1.75;;;;;;;8.13;68.12;98746.38;6435591;22;20046;-87
2024/04/25 06:14:36;;;;;;;2.80;1.13;;;;;;;8.16;67.85;98740.94;6432479;22;20005;-87
2024/04/25 06:17:19;;;;;;;4.93;1.38;;;;;;;8.14;67.65;98734.94;6476376;22;20012;-86
2024/04/25 06:22:23;;;;;;;5.88;1.50;;;;;;;8.20;67.39;98738.97;6475747;22;20025;-86
2024/04/25 06:25:02;;;;;;;7.20;2.20;;;;;;;8.18;67.07;98741.66;6432345;22;20437;-86
2024/04/25 06:27:48;;;;;;;;;;;;;;;;;;;;;
2024/04/25 06:30:22;;;;;;;8.77;2.08;;;;;;;8.19;67.14;98750.38;6523880;22;20625;-87
2024/04/25 06:32:59;;;;;;;;;;;;;;;;;;;;;
2024/04/25 06:35:42;;;;;;;7.03;1.33;;;;;;;8.16;67.13;98746.19;6529309;22;20001;-88
2024/04/25 06:49:09;;;;;;;4.38;1.65;;;;;;;8.24;67.66;98752.69;6486161;21;20008;-89
2024/04/25 06:51:40;;;;;;;5.38;1.67;;;;;;;8.28;68.01;98752.41;6530495;22;19997;-88
2024/04/25 06:54:30;;;;;;;9.20;1.88;;;;;;;8.31;67.48;98756.63;6485425;22;20000;-88
2024/04/25 06:56:57;;;;;;;7.20;1.75;;;;;;;8.41;68.07;98747.22;6530434;22;20405;-88
2024/04/25 06:59:27;;;;;;;7.55;1.73;;;;;;;8.46;67.24;98746.94;6529900;22;20559;-88
2024/04/25 07:01:54;;;;;;;6.97;1.80;;;;;;;8.56;67.52;98749.84;6530073;22;20369;-88
2024/04/25 07:04:45;;;;;;;7.05;1.35;;;;;;;8.60;66.53;98756.56;6485277;22;20138;-88
2024/04/25 07:07:12;;;;;;;7.78;2.03;;;;;;;8.70;66.99;98757.63;6530469;22;20019;-87
2024/04/25 07:09:39;;;;;;;3.90;1.33;;;;;;;8.77;67.13;98759.84;6530108;22;19997;-88
2024/04/25 07:12:30;;;;;;;4.35;1.33;;;;;;;8.78;66.05;98757.13;6530159;22;19993;-88
2024/04/25 14:41:39;;;;;;;4.93;2.60;;;;;;;12.14;51.88;98607.34;6528634;22;20306;-88
2024/04/25 14:44:06;;;;;;;9.40;3.28;;;;;;;12.41;51.60;98605.19;6528274;22;20072;-87
2024/04/25 14:46:36;;;;;;;10.68;2.47;;;;;;;12.63;50.45;98602.44;6527252;22;20001;-87
2024/04/25 14:49:22;;;;;;;8.57;2.55;;;;;;;12.81;48.86;98593.06;6530728;21;20001;-87
2024/04/25 14:51:48;;;;;;;4.38;2.50;;;;;;;12.98;50.50;98586.34;6530490;21;20417;-87
2024/04/25 14:54:15;;;;;;;7.57;3.13;;;;;;;13.13;51.05;98587.66;6530566;21;20012;-87
2024/04/25 14:56:42;;;;;;;10.80;3.40;;;;;;;13.34;51.37;98597.31;6528168;22;19997;-87
2024/04/25 14:59:08;;;;;;;6.03;3.17;;;;;;;13.62;52.51;98581.72;6530009;22;20009;-87
2024/04/25 15:01:35;;;;;;;6.53;2.55;;;;;;;14.00;53.65;98581.06;6528070;22;19997;-87
2024/04/25 15:04:14;;;;;;;5.22;2.85;;;;;;;14.42;49.84;98574.63;6530561;21;20013;-87
2024/04/25 15:06:41;;;;;;;5.13;2.58;;;;;;;14.88;51.91;98584.59;6530137;22;19997;-87
2024/04/25 15:09:08;;;;;;;6.57;2.80;;;;;;;15.16;50.21;98574.00;6530035;21;20005;-87
2024/04/25 15:11:35;;;;;;;5.55;2.67;;;;;;;15.30;49.41;98583.31;6530072;21;20004;-87
2024/04/25 15:14:02;;;;;;;6.80;2.67;;;;;;;15.30;47.95;98578.00;6529944;22;20071;-87
2024/04/25 15:16:29;;;;;;;6.28;2.85;;;;;;;15.19;47.07;98576.38;6530062;21;19993;-88
2024/04/25 15:19:08;;;;;;;7.05;2.53;;;;;;;14.90;46.09;98572.88;6528467;22;20025;-87
2024/04/25 15:21:34;;;;;;;7.97;3.00;;;;;;;14.68;47.02;98574.84;6529891;21;20015;-87
2024/04/25 15:24:03;;;;;;;7.05;2.53;;;;;;;14.42;46.97;98574.63;6528232;22;20004;-87
2024/04/25 15:26:39;;;;;;;7.63;2.60;;;;;;;14.05;45.56;98574.38;6527897;22;19993;-87
2024/04/25 15:29:06;;;;;;;6.72;2.72;;;;;;;13.81;46.94;98574.78;6527803;22;20009;-87
2024/04/25 15:31:56;;;;;;;3.63;2.30;;;;;;;13.48;47.27;98588.22;6530348;21;20004;-88
2024/04/25 15:34:22;;;;;;;6.55;2.60;;;;;;;13.33;48.13;98587.72;6530378;22;19993;-87
2024/04/25 15:36:52;;;;;;;5.70;2.58;;;;;;;13.15;48.15;98584.88;6530207;21;20276;-87
2024/04/25 15:39:27;;;;;;;6.75;2.28;;;;;;;12.97;48.63;98584.69;6527556;22;20001;-87
2024/04/25 15:41:54;;;;;;;7.15;2.45;;;;;;;12.90;49.74;98573.81;6530268;21;20020;-87
2024/04/25 15:44:48;;;;;;;3.80;2.50;;;;;;;12.79;49.76;98577.38;6529935;21;20012;-87
2024/04/25 15:47:15;;;;;;;5.65;2.45;;;;;;;12.83;50.91;98570.88;6530000;21;20075;-87
2024/04/25 15:49:42;;;;;;;6.10;2.58;;;;;;;12.90;51.32;98568.53;6528024;22;20047;-87
2024/04/25 15:52:11;;;;;;;6.32;2.55;;;;;;;12.97;50.95;98564.38;6527359;22;20016;-87
2024/04/25 15:54:38;;;;;;;4.93;2.63;;;;;;;13.08;51.52;98560.81;6527648;22;20009;-87
2024/04/25 15:57:08;;;;;;;6.18;2.88;;;;;;;13.17;51.16;98553.91;6529968;21;19997;-87
2024/04/25 15:59:41;;;;;;;5.35;2.53;;;;;;;13.28;49.50;98563.53;6527069;22;20072;-87
2024/04/25 16:02:08;;;;;;;;;;;;;;;13.46;50.04;98554.94;6530511;21;20004;-87
2024/04/25 16:04:35;;;;;;;5.65;2.63;;;;;;;13.74;51.59;98561.28;6529670;21;19950;-87
2024/04/25 16:07:04;;;;;;;5.13;2.75;;;;;;;13.93;50.32;98560.47;6527818;22;20068;-87
2024/04/25 16:09:30;;;;;;;8.00;2.50;;;;;;;14.11;50.56;98540.38;6527543;22;20026;-87
2024/04/25 16:11:57;;;;;;;4.93;2.90;;;;;;;14.26;49.75;98548.72;6527266;22;20005;-87
2024/04/25 16:14:27;;;;;;;5.90;2.55;;;;;;;14.31;47.18;98549.13;6527310;22;20294;-87
2024/04/25 16:16:54;;;;;;;5.43;2.58;;;;;;;14.31;48.21;98549.13;6529065;21;20026;-86
2024/04/25 16:19:45;;;;;;;6.97;2.90;;;;;;;14.18;47.13;98545.00;6526713;22;20009;-87
2024/04/25 16:22:12;;;;;;;7.82;2.90;;;;;;;14.15;48.64;98537.34;6529525;22;20012;-88
2024/04/25 16:24:48;;;;;;;11.60;2.85;;;;;;;14.05;47.36;98534.69;6529646;21;20004;-90
2024/04/25 16:27:15;;;;;;;6.15;2.97;;;;;;;14.02;48.41;98529.66;6527524;22;19993;-87
2024/04/25 16:30:11;;;;;;;6.68;2.50;;;;;;;13.89;47.14;98529.97;6527172;22;20310;-88
2024/04/25 16:32:37;;;;;;;8.85;3.25;;;;;;;13.80;47.25;98530.81;6529467;22;20004;-88
2024/04/25 16:35:04;;;;;;;6.05;3.00;;;;;;;13.60;46.68;98522.03;6527170;22;19997;-88
2024/04/25 16:38:04;;;;;;;5.72;3.13;;;;;;;13.30;43.30;98527.22;6527203;22;19997;-88
2024/04/25 16:40:53;;;;;;;9.70;3.42;;;;;;;13.05;44.57;98524.09;6529426;21;20437;-88
2024/04/25 16:43:20;;;;;;;4.28;3.15;;;;;;;12.90;47.13;98518.34;6527473;22;20012;-87
2024/04/25 16:45:51;;;;;;;7.28;2.95;;;;;;;12.72;47.68;98511.06;6529439;21;19993;-88
2024/04/25 16:48:19;;;;;;;6.15;3.05;;;;;;;12.59;48.18;98518.34;6529504;22;20008;-87
2024/04/25 16:50:46;;;;;;;7.72;3.45;;;;;;;12.48;48.27;98521.88;6529500;21;20033;-88
2024/04/25 16:53:15;;;;;;;5.43;3.00;;;;;;;12.33;46.96;98514.31;6529578;21;20009;-88
2024/04/25 16:55:42;;;;;;;7.00;3.05;;;;;;;12.24;48.41;98523.84;6527515;22;19997;-88
2024/04/25 16:58:14;;;;;;;6.22;2.78;;;;;;;12.15;48.06;98524.59;6527391;22;20426;-88
2024/04/25 17:00:57;;;;;;;6.03;2.90;;;;;;;12.01;46.76;98531.03;6531570;21;19997;-90
2024/04/25 17:03:24;;;;;;;;;;;;;;;11.95;46.38;98518.31;6527655;22;20284;-91
2024/04/25 17:05:52;;;;;;;3.80;2.28;;;;;;;11.91;48.03;98522.16;6528810;22;19921;-90
2024/04/25 17:08:20;;;;;;;7.05;2.53;;;;;;;11.83;48.53;98512.28;6528905;21;20302;-91
2024/04/25 17:10:52;;;;;;;5.32;2.63;;;;;;;11.72;47.42;98521.06;6526386;22;20016;-90
2024/04/25 17:13:18;;;;;;;11.03;3.07;;;;;;;11.68;47.90;98522.28;6528874;22;20426;-90
2024/04/25 17:16:13;;;;;;;8.15;3.15;;;;;;;11.55;46.14;98515.34;6526514;22;20434;-91
2024/04/25 17:18:39;;;;;;;9.43;2.78;;;;;;;11.54;48.27;98518.97;6526760;22;20005;-91
2024/04/25 17:21:17;;;;;;;7.25;3.03;;;;;;;11.41;47.26;98513.88;6526572;22;20298;-91
2024/04/25 17:23:49;;;;;;;6.75;2.88;;;;;;;11.38;47.93;98519.38;6526743;22;20275;-91
2024/04/25 17:26:22;;;;;;;8.70;3.35;;;;;;;11.29;46.63;98520.13;6526695;22;20311;-90
2024/04/25 17:28:53;;;;;;;6.38;2.92;;;;;;;11.25;47.77;98539.75;6528899;21;20407;-91
2024/04/25 17:31:22;;;;;;;8.27;3.05;;;;;;;11.17;47.25;98532.44;6526639;22;20001;-91
2024/04/25 17:33:50;;;;;;;7.75;2.70;;;;;;;11.12;47.86;98534.59;6527099;22;20004;-90
2024/04/25 17:36:17;;;;;;;6.20;2.80;;;;;;;11.05;48.11;98526.34;6526968;22;20391;-91
2024/04/25 17:38:44;;;;;;;5.93;2.80;;;;;;;11.00;48.66;98529.38;6528893;22;19997;-90
2024/04/25 17:41:11;;;;;;;10.43;3.10;;;;;;;10.96;47.98;98543.75;6526637;22;20434;-91
2024/04/25 17:43:54;;;;;;;7.18;3.28;;;;;;;10.88;47.50;98535.59;6528872;21;20001;-91
2024/04/25 17:46:21;;;;;;;5.97;3.33;;;;;;;10.89;48.68;98534.63;6529127;22;19993;-91
2024/04/25 17:48:48;;;;;;;6.13;3.03;;;;;;;10.86;48.65;98540.13;6526660;22;20406;-91
2024/04/25 17:51:22;;;;;;;5.63;2.50;;;;;;;10.81;48.28;98533.44;6526756;22;20402;-91
2024/04/25 17:53:49;;;;;;;6.78;3.00;;;;;;;10.81;49.19;98538.69;6526635;22;20011;-91
2024/04/25 17:56:22;;;;;;;5.97;2.70;;;;;;;10.77;48.85;98537.25;6526572;22;20012;-91
2024/04/25 17:58:49;;;;;;;5.72;3.05;;;;;;;10.78;49.35;98538.94;6528411;21;19993;-91
2024/04/25 18:01:16;;;;;;;5.32;2.95;;;;;;;10.77;49.77;98537.25;6527114;22;19993;-91
2024/04/25 18:03:45;;;;;;;7.93;2.85;;;;;;;10.76;49.43;98537.41;6526560;22;20071;-91
2024/04/25 18:06:12;;;;;;;5.07;2.55;;;;;;;10.76;50.18;98540.84;6529131;21;20004;-92
2024/04/25 18:08:39;;;;;;;5.55;2.97;;;;;;;10.77;49.93;98539.06;6527472;22;20067;-92
2024/04/25 18:11:31;;;;;;;9.70;3.42;;;;;;;10.71;49.29;98550.91;6526812;22;20009;-91
2024/04/25 18:13:58;;;;;;;7.03;2.70;;;;;;;10.74;50.35;98541.94;6529219;21;20009;-91
2024/04/25 18:16:24;;;;;;;8.02;3.08;;;;;;;10.72;50.34;98546.50;6526768;22;20060;-92
2024/04/25 18:22:33;;;;;;;5.30;2.85;;;;;;;10.69;50.53;98544.91;6534310;22;20000;-92
2024/04/25 18:25:01;;;;;;;7.90;3.22;;;;;;;10.66;50.35;98543.34;6528998;22;20060;-91
2024/04/25 18:27:27;;;;;;;7.45;3.20;;;;;;;10.62;50.22;98547.16;6528842;22;20000;-92
2024/04/25 18:29:54;;;;;;;7.32;3.28;;;;;;;10.60;50.51;98545.63;6531104;22;19994;-92
2024/04/25 18:35:47;;;;;;;5.03;2.80;;;;;;;10.53;50.28;98540.84;6531065;22;19997;-92
2024/04/25 18:38:14;;;;;;;5.68;2.60;;;;;;;10.52;50.67;98551.47;6529196;22;20334;-92
2024/04/25 18:40:44;;;;;;;9.75;2.60;;;;;;;10.49;50.29;98543.81;6528941;22;20000;-92
2024/04/25 18:43:11;;;;;;;8.48;3.40;;;;;;;10.47;50.57;98545.72;6529291;22;20000;-92
2024/04/25 18:45:38;;;;;;;6.90;3.17;;;;;;;10.45;50.43;98540.59;6528741;22;19997;-91
2024/04/25 18:48:15;;;;;;;6.05;2.80;;;;;;;10.39;48.95;98543.66;6530742;21;20004;-91
2024/04/25 18:50:43;;;;;;;5.72;3.15;;;;;;;10.41;50.27;98547.00;6530860;21;19993;-91
2024/04/25 18:53:10;;;;;;;10.48;3.63;;;;;;;10.40;50.15;98546.16;6528713;22;20003;-92
2024/04/25 18:55:51;;;;;;;7.65;3.33;;;;;;;10.35;49.35;98543.03;6528622;22;19997;-91
2024/04/25 18:58:18;;;;;;;7.00;3.03;;;;;;;10.38;50.41;98542.81;6528940;22;19993;-92
2024/04/25 19:00:45;;;;;;;6.25;3.15;;;;;;;10.38;50.57;98536.69;6530864;21;20000;-92
2024/04/25 19:07:02;;;;;;;6.35;3.33;;;;;;;10.40;50.50;98535.63;6534400;22;20122;-91
2024/04/25 19:09:36;;;;;;;6.28;3.20;;;;;;;10.36;49.64;98538.63;6528898;22;20038;-91
2024/04/25 19:12:03;;;;;;;7.57;2.90;;;;;;;10.37;50.32;98537.66;6530557;21;19997;-91
2024/04/25 19:14:37;;;;;;;5.70;2.70;;;;;;;10.35;50.38;98540.41;6518639;21;20294;-88
2024/04/25 19:17:08;;;;;;;7.93;3.33;;;;;;;10.33;50.04;98531.81;6481949;22;19997;-88
2024/04/25 19:19:48;;;;;;;;;;;;;;;;;;;;;
2024/04/25 19:22:28;;;;;;;9.75;3.55;;;;;;;10.32;50.13;98542.44;6526300;22;20012;-88
2024/04/25 19:24:59;;;;;;;7.25;3.28;;;;;;;10.29;49.94;98546.97;6483194;22;20305;-87
2024/04/25 19:27:32;;;;;;;9.48;3.38;;;;;;;10.25;49.38;98545.50;6482093;22;20008;-88
2024/04/25 19:30:01;;;;;;;8.15;3.45;;;;;;;10.24;50.09;98546.47;6481789;22;20011;-88
2024/04/25 19:32:28;;;;;;;8.20;3.83;;;;;;;10.22;50.14;98545.75;6525939;22;20409;-88
2024/04/25 19:34:56;;;;;;;7.53;3.75;;;;;;;10.19;49.87;98548.63;6482084;22;20549;-87
2024/04/25 19:37:25;;;;;;;6.38;3.40;;;;;;;10.15;48.91;98548.03;6481559;22;20005;-88
2024/04/25 19:39:55;;;;;;;6.32;3.90;;;;;;;10.16;50.18;98540.94;6523717;22;20012;-88
2024/04/25 19:42:28;;;;;;;9.15;3.80;;;;;;;10.15;50.58;98544.53;6483014;22;20008;-88
2024/04/25 19:44:59;;;;;;;8.88;4.43;;;;;;;10.10;49.43;98550.13;6524206;22;19997;-88
2024/04/25 19:47:38;;;;;;;6.88;4.35;;;;;;;10.08;50.15;98535.44;6481652;22;20447;-88
2024/04/25 19:50:28;;;;;;;8.27;4.93;;;;;;;10.06;50.06;98537.34;6310129;22;19997;-88
2024/04/25 19:53:01;;;;;;;11.10;4.82;;;;;;;10.03;50.32;98539.22;6483147;22;20001;-88
2024/04/25 19:55:33;;;;;;;7.68;4.40;;;;;;;9.98;50.14;98544.00;6482077;22;20412;-88
2024/04/25 19:58:17;;;;;;;;;;;;;;;9.98;49.61;98533.47;6485868;22;19997;-88
2024/04/25 20:00:44;;;;;;;7.88;4.30;;;;;;;10.00;50.85;98536.00;6481677;22;19929;-87
2024/04/25 20:03:14;;;;;;;6.75;4.05;;;;;;;9.96;50.91;98537.19;6482606;22;20003;-88
2024/04/25 20:05:44;;;;;;;7.40;4.25;;;;;;;9.91;50.44;98540.16;6481471;22;20012;-88
2024/04/25 20:08:11;;;;;;;9.48;4.70;;;;;;;9.91;51.21;98542.81;6480541;22;20009;-88
2024/04/25 20:10:38;;;;;;;9.57;4.30;;;;;;;9.88;51.47;98535.13;6481431;22;20005;-87
2024/04/25 20:13:10;;;;;;;7.97;4.32;;;;;;;9.87;51.76;98542.16;6482323;22;20439;-87